sensor_id;sensor_type;location;lat;lon;timestamp;P1;durP1;ratioP1;P2;durP2;ratioP2
51332;SDS011;37417;48.118;11.734;2023-11-19T00:00:45;1.27;;;0.80;;
51332;SDS011;37417;48.118;11.734;2023-11-19T00:03:30;0.95;;;0.80;;
51332;SDS011;37417;48.118;11.734;2023-11-19T00:06:16;1.50;;;0.85;;
51332;SDS011;37417;48.118;11.734;2023-11-19T00:09:02;0.95;;;0.90;;
51332;SDS011;37417;48.118;11.734;2023-11-19T00:11:49;2.30;;;0.70;;
51332;SDS011;37417;48.118;11.734;2023-11-19T00:14:34;1.23;;;1.13;;
51332;SDS011;37417;48.118;11.734;2023-11-19T00:17:20;0.77;;;0.77;;
51332;SDS011;37417;48.118;11.734;2023-11-19T00:20:06;1.17;;;1.08;;
51332;SDS011;37417;48.118;11.734;2023-11-19T00:22:51;0.70;;;0.70;;
51332;SDS011;37417;48.118;11.734;2023-11-19T00:25:37;2.20;;;1.00;;
51332;SDS011;37417;48.118;11.734;2023-11-19T00:28:24;1.17;;;0.93;;
51332;SDS011;37417;48.118;11.734;2023-11-19T00:31:09;1.45;;;1.10;;
51332;SDS011;37417;48.118;11.734;2023-11-19T00:33:55;1.38;;;0.70;;
51332;SDS011;37417;48.118;11.734;2023-11-19T00:36:40;0.70;;;0.70;;
51332;SDS011;37417;48.118;11.734;2023-11-19T00:39:26;0.90;;;0.80;;
51332;SDS011;37417;48.118;11.734;2023-11-19T00:42:11;0.80;;;0.80;;
51332;SDS011;37417;48.118;11.734;2023-11-19T00:44:57;1.98;;;0.80;;
51332;SDS011;37417;48.118;11.734;2023-11-19T00:47:43;0.68;;;0.68;;
51332;SDS011;37417;48.118;11.734;2023-11-19T00:50:28;1.50;;;0.80;;
51332;SDS011;37417;48.118;11.734;2023-11-19T00:53:16;0.80;;;0.80;;
51332;SDS011;37417;48.118;11.734;2023-11-19T00:56:02;0.95;;;0.60;;
51332;SDS011;37417;48.118;11.734;2023-11-19T00:58:47;0.93;;;0.82;;
51332;SDS011;37417;48.118;11.734;2023-11-19T01:01:33;0.73;;;0.73;;
51332;SDS011;37417;48.118;11.734;2023-11-19T01:04:18;0.88;;;0.63;;
51332;SDS011;37417;48.118;11.734;2023-11-19T01:07:04;1.00;;;0.82;;
51332;SDS011;37417;48.118;11.734;2023-11-19T01:09:50;0.90;;;0.80;;
51332;SDS011;37417;48.118;11.734;2023-11-19T01:12:36;0.63;;;0.52;;
51332;SDS011;37417;48.118;11.734;2023-11-19T01:15:21;1.23;;;0.90;;
51332;SDS011;37417;48.118;11.734;2023-11-19T01:18:08;0.70;;;0.63;;
51332;SDS011;37417;48.118;11.734;2023-11-19T01:20:54;1.92;;;0.90;;
51332;SDS011;37417;48.118;11.734;2023-11-19T01:23:40;1.70;;;1.13;;
51332;SDS011;37417;48.118;11.734;2023-11-19T01:26:25;1.75;;;0.82;;
51332;SDS011;37417;48.118;11.734;2023-11-19T01:29:12;0.80;;;0.80;;
51332;SDS011;37417;48.118;11.734;2023-11-19T01:32:01;1.02;;;0.77;;
51332;SDS011;37417;48.118;11.734;2023-11-19T01:34:46;1.45;;;0.70;;
51332;SDS011;37417;48.118;11.734;2023-11-19T01:37:32;0.65;;;0.65;;
51332;SDS011;37417;48.118;11.734;2023-11-19T01:40:20;0.38;;;0.38;;
51332;SDS011;37417;48.118;11.734;2023-11-19T01:43:05;0.98;;;0.88;;
51332;SDS011;37417;48.118;11.734;2023-11-19T01:45:51;0.55;;;0.55;;
51332;SDS011;37417;48.118;11.734;2023-11-19T01:48:38;1.02;;;0.75;;
51332;SDS011;37417;48.118;11.734;2023-11-19T01:51:26;1.02;;;0.75;;
51332;SDS011;37417;48.118;11.734;2023-11-19T01:54:12;1.33;;;0.73;;
51332;SDS011;37417;48.118;11.734;2023-11-19T01:56:58;3.20;;;0.63;;
51332;SDS011;37417;48.118;11.734;2023-11-19T01:59:44;0.63;;;0.63;;
51332;SDS011;37417;48.118;11.734;2023-11-19T02:02:30;1.27;;;0.50;;
51332;SDS011;37417;48.118;11.734;2023-11-19T02:05:15;0.60;;;0.60;;
51332;SDS011;37417;48.118;11.734;2023-11-19T02:08:01;1.75;;;0.50;;
51332;SDS011;37417;48.118;11.734;2023-11-19T02:10:48;0.88;;;0.88;;
51332;SDS011;37417;48.118;11.734;2023-11-19T02:13:33;0.50;;;0.50;;
51332;SDS011;37417;48.118;11.734;2023-11-19T02:16:21;1.23;;;0.82;;
51332;SDS011;37417;48.118;11.734;2023-11-19T02:19:07;1.98;;;0.75;;
51332;SDS011;37417;48.118;11.734;2023-11-19T02:21:53;0.63;;;0.63;;
51332;SDS011;37417;48.118;11.734;2023-11-19T02:24:39;0.93;;;0.70;;
51332;SDS011;37417;48.118;11.734;2023-11-19T02:30:30;0.80;;;0.80;;
51332;SDS011;37417;48.118;11.734;2023-11-19T02:33:17;0.60;;;0.60;;
51332;SDS011;37417;48.118;11.734;2023-11-19T02:36:06;0.40;;;0.40;;
51332;SDS011;37417;48.118;11.734;2023-11-19T02:38:52;3.05;;;0.70;;
51332;SDS011;37417;48.118;11.734;2023-11-19T02:41:37;0.55;;;0.50;;
51332;SDS011;37417;48.118;11.734;2023-11-19T02:44:24;2.85;;;0.82;;
51332;SDS011;37417;48.118;11.734;2023-11-19T02:47:12;0.98;;;0.85;;
51332;SDS011;37417;48.118;11.734;2023-11-19T02:49:58;0.50;;;0.50;;
51332;SDS011;37417;48.118;11.734;2023-11-19T02:52:44;0.60;;;0.50;;
51332;SDS011;37417;48.118;11.734;2023-11-19T02:55:31;1.40;;;0.68;;
51332;SDS011;37417;48.118;11.734;2023-11-19T02:58:21;0.40;;;0.40;;
51332;SDS011;37417;48.118;11.734;2023-11-19T03:01:09;0.32;;;0.32;;
51332;SDS011;37417;48.118;11.734;2023-11-19T03:04:09;0.28;;;0.28;;
51332;SDS011;37417;48.118;11.734;2023-11-19T03:06:57;1.73;;;0.65;;
51332;SDS011;37417;48.118;11.734;2023-11-19T03:09:43;2.67;;;0.82;;
51332;SDS011;37417;48.118;11.734;2023-11-19T03:12:29;1.90;;;0.57;;
51332;SDS011;37417;48.118;11.734;2023-11-19T03:15:15;1.05;;;0.65;;
51332;SDS011;37417;48.118;11.734;2023-11-19T03:18:01;2.40;;;0.68;;
51332;SDS011;37417;48.118;11.734;2023-11-19T03:20:46;1.10;;;0.50;;
51332;SDS011;37417;48.118;11.734;2023-11-19T03:23:32;0.80;;;0.55;;
51332;SDS011;37417;48.118;11.734;2023-11-19T03:26:18;1.50;;;0.55;;
51332;SDS011;37417;48.118;11.734;2023-11-19T03:29:03;0.98;;;0.45;;
51332;SDS011;37417;48.118;11.734;2023-11-19T03:31:49;0.50;;;0.50;;
51332;SDS011;37417;48.118;11.734;2023-11-19T03:34:35;0.43;;;0.43;;
51332;SDS011;37417;48.118;11.734;2023-11-19T03:37:20;0.55;;;0.40;;
51332;SDS011;37417;48.118;11.734;2023-11-19T03:40:06;2.63;;;0.40;;
51332;SDS011;37417;48.118;11.734;2023-11-19T03:42:52;0.50;;;0.50;;
51332;SDS011;37417;48.118;11.734;2023-11-19T03:45:37;0.30;;;0.30;;
51332;SDS011;37417;48.118;11.734;2023-11-19T03:48:23;0.28;;;0.28;;
51332;SDS011;37417;48.118;11.734;2023-11-19T03:51:09;0.32;;;0.32;;
51332;SDS011;37417;48.118;11.734;2023-11-19T03:53:54;0.65;;;0.50;;
51332;SDS011;37417;48.118;11.734;2023-11-19T03:56:40;0.55;;;0.55;;
51332;SDS011;37417;48.118;11.734;2023-11-19T03:59:25;0.45;;;0.30;;
51332;SDS011;37417;48.118;11.734;2023-11-19T04:02:11;2.05;;;0.57;;
51332;SDS011;37417;48.118;11.734;2023-11-19T04:04:56;0.30;;;0.30;;
51332;SDS011;37417;48.118;11.734;2023-11-19T04:07:42;0.40;;;0.38;;
51332;SDS011;37417;48.118;11.734;2023-11-19T04:10:28;1.27;;;0.52;;
51332;SDS011;37417;48.118;11.734;2023-11-19T04:13:13;1.38;;;0.40;;
51332;SDS011;37417;48.118;11.734;2023-11-19T04:15:59;0.28;;;0.28;;
51332;SDS011;37417;48.118;11.734;2023-11-19T04:18:44;0.35;;;0.35;;
51332;SDS011;37417;48.118;11.734;2023-11-19T04:21:30;0.43;;;0.38;;
51332;SDS011;37417;48.118;11.734;2023-11-19T04:24:16;0.90;;;0.50;;
51332;SDS011;37417;48.118;11.734;2023-11-19T04:27:01;0.45;;;0.45;;
51332;SDS011;37417;48.118;11.734;2023-11-19T04:29:47;0.40;;;0.40;;
51332;SDS011;37417;48.118;11.734;2023-11-19T04:32:32;0.40;;;0.38;;
51332;SDS011;37417;48.118;11.734;2023-11-19T04:35:18;2.13;;;0.22;;
51332;SDS011;37417;48.118;11.734;2023-11-19T04:38:04;0.57;;;0.40;;
51332;SDS011;37417;48.118;11.734;2023-11-19T04:40:51;0.40;;;0.32;;
51332;SDS011;37417;48.118;11.734;2023-11-19T04:43:36;0.35;;;0.35;;
51332;SDS011;37417;48.118;11.734;2023-11-19T04:46:22;0.50;;;0.40;;
51332;SDS011;37417;48.118;11.734;2023-11-19T04:49:09;0.70;;;0.50;;
51332;SDS011;37417;48.118;11.734;2023-11-19T04:51:56;0.25;;;0.25;;
51332;SDS011;37417;48.118;11.734;2023-11-19T04:54:41;1.85;;;0.50;;
51332;SDS011;37417;48.118;11.734;2023-11-19T04:57:28;0.25;;;0.25;;
51332;SDS011;37417;48.118;11.734;2023-11-19T05:00:14;1.17;;;0.60;;
51332;SDS011;37417;48.118;11.734;2023-11-19T05:02:59;1.58;;;0.40;;
51332;SDS011;37417;48.118;11.734;2023-11-19T05:05:45;0.17;;;0.17;;
51332;SDS011;37417;48.118;11.734;2023-11-19T05:08:31;0.40;;;0.20;;
51332;SDS011;37417;48.118;11.734;2023-11-19T05:11:16;0.32;;;0.32;;
51332;SDS011;37417;48.118;11.734;2023-11-19T05:14:04;0.30;;;0.30;;
51332;SDS011;37417;48.118;11.734;2023-11-19T05:16:50;0.60;;;0.22;;
51332;SDS011;37417;48.118;11.734;2023-11-19T05:19:36;0.47;;;0.47;;
51332;SDS011;37417;48.118;11.734;2023-11-19T05:22:21;0.40;;;0.30;;
51332;SDS011;37417;48.118;11.734;2023-11-19T05:25:07;0.30;;;0.30;;
51332;SDS011;37417;48.118;11.734;2023-11-19T05:27:54;0.60;;;0.35;;
51332;SDS011;37417;48.118;11.734;2023-11-19T05:30:39;0.20;;;0.20;;
51332;SDS011;37417;48.118;11.734;2023-11-19T05:33:25;0.32;;;0.15;;
51332;SDS011;37417;48.118;11.734;2023-11-19T05:36:12;0.45;;;0.20;;
51332;SDS011;37417;48.118;11.734;2023-11-19T05:38:58;0.40;;;0.40;;
51332;SDS011;37417;48.118;11.734;2023-11-19T05:41:43;0.20;;;0.20;;
51332;SDS011;37417;48.118;11.734;2023-11-19T05:44:29;0.47;;;0.38;;
51332;SDS011;37417;48.118;11.734;2023-11-19T05:47:14;0.22;;;0.22;;
51332;SDS011;37417;48.118;11.734;2023-11-19T05:50:00;0.95;;;0.43;;
51332;SDS011;37417;48.118;11.734;2023-11-19T05:52:46;0.60;;;0.50;;
51332;SDS011;37417;48.118;11.734;2023-11-19T05:55:33;2.00;;;0.35;;
51332;SDS011;37417;48.118;11.734;2023-11-19T05:58:19;0.65;;;0.40;;
51332;SDS011;37417;48.118;11.734;2023-11-19T06:01:05;1.55;;;0.60;;
51332;SDS011;37417;48.118;11.734;2023-11-19T06:03:52;0.73;;;0.20;;
51332;SDS011;37417;48.118;11.734;2023-11-19T06:06:38;0.50;;;0.40;;
51332;SDS011;37417;48.118;11.734;2023-11-19T06:09:25;0.77;;;0.50;;
51332;SDS011;37417;48.118;11.734;2023-11-19T06:12:10;0.30;;;0.30;;
51332;SDS011;37417;48.118;11.734;2023-11-19T06:14:56;0.30;;;0.20;;
51332;SDS011;37417;48.118;11.734;2023-11-19T06:17:42;0.40;;;0.40;;
51332;SDS011;37417;48.118;11.734;2023-11-19T06:20:28;0.38;;;0.38;;
51332;SDS011;37417;48.118;11.734;2023-11-19T06:23:14;0.10;;;0.10;;
51332;SDS011;37417;48.118;11.734;2023-11-19T06:26:00;0.40;;;0.40;;
51332;SDS011;37417;48.118;11.734;2023-11-19T06:28:45;0.30;;;0.25;;
51332;SDS011;37417;48.118;11.734;2023-11-19T06:31:31;0.30;;;0.30;;
51332;SDS011;37417;48.118;11.734;2023-11-19T06:34:17;3.42;;;0.70;;
51332;SDS011;37417;48.118;11.734;2023-11-19T06:37:02;0.10;;;0.10;;
51332;SDS011;37417;48.118;11.734;2023-11-19T06:39:49;0.10;;;0.10;;
51332;SDS011;37417;48.118;11.734;2023-11-19T06:42:35;0.13;;;0.13;;
51332;SDS011;37417;48.118;11.734;2023-11-19T06:45:21;0.32;;;0.30;;
51332;SDS011;37417;48.118;11.734;2023-11-19T06:48:06;0.15;;;0.15;;
51332;SDS011;37417;48.118;11.734;2023-11-19T06:50:52;0.20;;;0.20;;
51332;SDS011;37417;48.118;11.734;2023-11-19T06:53:39;1.75;;;0.20;;
51332;SDS011;37417;48.118;11.734;2023-11-19T06:56:27;0.10;;;0.10;;
51332;SDS011;37417;48.118;11.734;2023-11-19T06:59:13;0.25;;;0.25;;
51332;SDS011;37417;48.118;11.734;2023-11-19T07:01:58;0.40;;;0.30;;
51332;SDS011;37417;48.118;11.734;2023-11-19T07:04:44;0.20;;;0.20;;
51332;SDS011;37417;48.118;11.734;2023-11-19T07:07:30;0.20;;;0.20;;
51332;SDS011;37417;48.118;11.734;2023-11-19T07:10:16;0.17;;;0.17;;
51332;SDS011;37417;48.118;11.734;2023-11-19T07:13:01;0.00;;;0.00;;
51332;SDS011;37417;48.118;11.734;2023-11-19T07:15:51;0.22;;;0.20;;
51332;SDS011;37417;48.118;11.734;2023-11-19T07:18:36;0.10;;;0.10;;
51332;SDS011;37417;48.118;11.734;2023-11-19T07:21:22;0.20;;;0.20;;
51332;SDS011;37417;48.118;11.734;2023-11-19T07:24:07;0.20;;;0.20;;
51332;SDS011;37417;48.118;11.734;2023-11-19T07:26:53;0.95;;;0.17;;
51332;SDS011;37417;48.118;11.734;2023-11-19T07:29:39;0.57;;;0.35;;
51332;SDS011;37417;48.118;11.734;2023-11-19T07:32:24;1.45;;;0.35;;
51332;SDS011;37417;48.118;11.734;2023-11-19T07:35:10;0.20;;;0.20;;
51332;SDS011;37417;48.118;11.734;2023-11-19T07:37:57;0.10;;;0.10;;
51332;SDS011;37417;48.118;11.734;2023-11-19T07:40:42;0.43;;;0.17;;
51332;SDS011;37417;48.118;11.734;2023-11-19T07:43:28;0.25;;;0.10;;
51332;SDS011;37417;48.118;11.734;2023-11-19T07:46:14;0.10;;;0.10;;
51332;SDS011;37417;48.118;11.734;2023-11-19T07:48:59;0.88;;;0.10;;
51332;SDS011;37417;48.118;11.734;2023-11-19T07:51:45;0.30;;;0.22;;
51332;SDS011;37417;48.118;11.734;2023-11-19T07:54:31;0.10;;;0.10;;
51332;SDS011;37417;48.118;11.734;2023-11-19T07:57:16;0.10;;;0.10;;
51332;SDS011;37417;48.118;11.734;2023-11-19T08:00:02;0.55;;;0.20;;
51332;SDS011;37417;48.118;11.734;2023-11-19T08:02:48;0.35;;;0.35;;
51332;SDS011;37417;48.118;11.734;2023-11-19T08:05:33;0.52;;;0.10;;
51332;SDS011;37417;48.118;11.734;2023-11-19T08:08:19;0.10;;;0.10;;
51332;SDS011;37417;48.118;11.734;2023-11-19T08:11:05;0.20;;;0.10;;
51332;SDS011;37417;48.118;11.734;2023-11-19T08:13:50;0.22;;;0.17;;
51332;SDS011;37417;48.118;11.734;2023-11-19T08:16:36;0.10;;;0.10;;
51332;SDS011;37417;48.118;11.734;2023-11-19T08:19:23;0.20;;;0.20;;
51332;SDS011;37417;48.118;11.734;2023-11-19T08:22:08;0.10;;;0.10;;
51332;SDS011;37417;48.118;11.734;2023-11-19T08:24:54;0.40;;;0.10;;
51332;SDS011;37417;48.118;11.734;2023-11-19T08:27:40;0.50;;;0.20;;
51332;SDS011;37417;48.118;11.734;2023-11-19T08:30:25;0.10;;;0.10;;
51332;SDS011;37417;48.118;11.734;2023-11-19T08:33:11;0.60;;;0.30;;
51332;SDS011;37417;48.118;11.734;2023-11-19T08:35:56;4.47;;;0.20;;
51332;SDS011;37417;48.118;11.734;2023-11-19T08:38:43;4.32;;;0.20;;
51332;SDS011;37417;48.118;11.734;2023-11-19T08:41:29;0.20;;;0.20;;
51332;SDS011;37417;48.118;11.734;2023-11-19T08:44:14;0.35;;;0.20;;
51332;SDS011;37417;48.118;11.734;2023-11-19T08:47:00;1.77;;;0.20;;
51332;SDS011;37417;48.118;11.734;2023-11-19T08:49:45;0.10;;;0.10;;
51332;SDS011;37417;48.118;11.734;2023-11-19T08:52:31;0.35;;;0.22;;
51332;SDS011;37417;48.118;11.734;2023-11-19T08:55:17;0.25;;;0.25;;
51332;SDS011;37417;48.118;11.734;2023-11-19T08:58:03;0.30;;;0.30;;
51332;SDS011;37417;48.118;11.734;2023-11-19T09:00:48;0.10;;;0.10;;
51332;SDS011;37417;48.118;11.734;2023-11-19T09:03:34;0.10;;;0.10;;
51332;SDS011;37417;48.118;11.734;2023-11-19T09:06:19;0.10;;;0.10;;
51332;SDS011;37417;48.118;11.734;2023-11-19T09:09:05;0.10;;;0.10;;
51332;SDS011;37417;48.118;11.734;2023-11-19T09:11:51;1.38;;;0.32;;
51332;SDS011;37417;48.118;11.734;2023-11-19T09:14:36;0.43;;;0.20;;
51332;SDS011;37417;48.118;11.734;2023-11-19T09:17:22;0.55;;;0.20;;
51332;SDS011;37417;48.118;11.734;2023-11-19T09:20:07;0.20;;;0.20;;
51332;SDS011;37417;48.118;11.734;2023-11-19T09:22:53;0.47;;;0.20;;
51332;SDS011;37417;48.118;11.734;2023-11-19T09:25:39;0.55;;;0.20;;
51332;SDS011;37417;48.118;11.734;2023-11-19T09:28:24;0.20;;;0.20;;
51332;SDS011;37417;48.118;11.734;2023-11-19T09:31:16;1.95;;;0.20;;
51332;SDS011;37417;48.118;11.734;2023-11-19T09:34:02;0.25;;;0.20;;
51332;SDS011;37417;48.118;11.734;2023-11-19T09:36:48;0.30;;;0.30;;
51332;SDS011;37417;48.118;11.734;2023-11-19T09:39:33;0.45;;;0.15;;
51332;SDS011;37417;48.118;11.734;2023-11-19T09:42:19;0.10;;;0.10;;
51332;SDS011;37417;48.118;11.734;2023-11-19T09:45:04;2.35;;;0.40;;
51332;SDS011;37417;48.118;11.734;2023-11-19T09:47:52;0.20;;;0.20;;
51332;SDS011;37417;48.118;11.734;2023-11-19T09:50:38;0.10;;;0.10;;
51332;SDS011;37417;48.118;11.734;2023-11-19T09:53:24;0.43;;;0.10;;
51332;SDS011;37417;48.118;11.734;2023-11-19T09:56:10;0.30;;;0.20;;
51332;SDS011;37417;48.118;11.734;2023-11-19T09:58:57;2.05;;;0.20;;
51332;SDS011;37417;48.118;11.734;2023-11-19T10:01:42;0.57;;;0.22;;
51332;SDS011;37417;48.118;11.734;2023-11-19T10:04:29;0.50;;;0.50;;
51332;SDS011;37417;48.118;11.734;2023-11-19T10:07:15;0.20;;;0.20;;
51332;SDS011;37417;48.118;11.734;2023-11-19T10:10:01;0.45;;;0.30;;
51332;SDS011;37417;48.118;11.734;2023-11-19T10:12:46;0.40;;;0.30;;
51332;SDS011;37417;48.118;11.734;2023-11-19T10:15:33;1.00;;;0.57;;
51332;SDS011;37417;48.118;11.734;2023-11-19T10:18:24;0.10;;;0.10;;
51332;SDS011;37417;48.118;11.734;2023-11-19T10:21:11;0.22;;;0.10;;
51332;SDS011;37417;48.118;11.734;2023-11-19T10:24:01;0.20;;;0.20;;
51332;SDS011;37417;48.118;11.734;2023-11-19T10:26:47;0.40;;;0.20;;
51332;SDS011;37417;48.118;11.734;2023-11-19T10:29:33;0.57;;;0.30;;
51332;SDS011;37417;48.118;11.734;2023-11-19T10:32:21;0.73;;;0.20;;
51332;SDS011;37417;48.118;11.734;2023-11-19T10:35:06;0.20;;;0.20;;
51332;SDS011;37417;48.118;11.734;2023-11-19T10:37:52;0.35;;;0.32;;
51332;SDS011;37417;48.118;11.734;2023-11-19T10:40:38;0.95;;;0.40;;
51332;SDS011;37417;48.118;11.734;2023-11-19T10:43:26;0.28;;;0.20;;
51332;SDS011;37417;48.118;11.734;2023-11-19T10:46:13;0.20;;;0.20;;
51332;SDS011;37417;48.118;11.734;2023-11-19T10:48:59;0.20;;;0.20;;
51332;SDS011;37417;48.118;11.734;2023-11-19T10:51:45;0.40;;;0.20;;
51332;SDS011;37417;48.118;11.734;2023-11-19T10:54:31;0.10;;;0.10;;
51332;SDS011;37417;48.118;11.734;2023-11-19T10:57:20;0.10;;;0.10;;
51332;SDS011;37417;48.118;11.734;2023-11-19T11:00:09;0.30;;;0.22;;
51332;SDS011;37417;48.118;11.734;2023-11-19T11:03:01;0.47;;;0.10;;
51332;SDS011;37417;48.118;11.734;2023-11-19T11:05:48;0.10;;;0.10;;
51332;SDS011;37417;48.118;11.734;2023-11-19T11:08:34;0.10;;;0.10;;
51332;SDS011;37417;48.118;11.734;2023-11-19T11:11:21;0.98;;;0.30;;
51332;SDS011;37417;48.118;11.734;2023-11-19T11:14:08;0.10;;;0.10;;
51332;SDS011;37417;48.118;11.734;2023-11-19T11:16:55;1.13;;;0.22;;
51332;SDS011;37417;48.118;11.734;2023-11-19T11:19:41;0.00;;;0.00;;
51332;SDS011;37417;48.118;11.734;2023-11-19T11:22:28;0.20;;;0.20;;
51332;SDS011;37417;48.118;11.734;2023-11-19T11:25:23;0.32;;;0.05;;
51332;SDS011;37417;48.118;11.734;2023-11-19T11:28:18;0.50;;;0.30;;
51332;SDS011;37417;48.118;11.734;2023-11-19T11:39:58;0.10;;;0.10;;
51332;SDS011;37417;48.118;11.734;2023-11-19T11:42:44;0.10;;;0.10;;
51332;SDS011;37417;48.118;11.734;2023-11-19T11:45:39;0.10;;;0.10;;
51332;SDS011;37417;48.118;11.734;2023-11-19T11:48:28;0.20;;;0.20;;
51332;SDS011;37417;48.118;11.734;2023-11-19T11:51:16;0.35;;;0.17;;
51332;SDS011;37417;48.118;11.734;2023-11-19T11:54:01;0.45;;;0.10;;
51332;SDS011;37417;48.118;11.734;2023-11-19T11:57:01;0.10;;;0.10;;
51332;SDS011;37417;48.118;11.734;2023-11-19T11:59:48;1.02;;;0.15;;
51332;SDS011;37417;48.118;11.734;2023-11-19T12:02:34;0.45;;;0.20;;
51332;SDS011;37417;48.118;11.734;2023-11-19T12:05:20;0.55;;;0.20;;
51332;SDS011;37417;48.118;11.734;2023-11-19T12:08:06;0.10;;;0.10;;
51332;SDS011;37417;48.118;11.734;2023-11-19T12:10:53;0.38;;;0.13;;
51332;SDS011;37417;48.118;11.734;2023-11-19T12:13:46;0.00;;;0.00;;
51332;SDS011;37417;48.118;11.734;2023-11-19T12:16:32;0.57;;;0.10;;
51332;SDS011;37417;48.118;11.734;2023-11-19T12:19:23;0.03;;;0.00;;
51332;SDS011;37417;48.118;11.734;2023-11-19T12:22:11;0.93;;;0.17;;
51332;SDS011;37417;48.118;11.734;2023-11-19T12:24:57;0.13;;;0.13;;
51332;SDS011;37417;48.118;11.734;2023-11-19T12:27:43;0.00;;;0.00;;
51332;SDS011;37417;48.118;11.734;2023-11-19T12:30:29;0.10;;;0.10;;
51332;SDS011;37417;48.118;11.734;2023-11-19T12:33:15;0.10;;;0.10;;
51332;SDS011;37417;48.118;11.734;2023-11-19T12:36:01;0.15;;;0.08;;
51332;SDS011;37417;48.118;11.734;2023-11-19T12:38:50;0.00;;;0.00;;
51332;SDS011;37417;48.118;11.734;2023-11-19T12:41:49;0.43;;;0.30;;
51332;SDS011;37417;48.118;11.734;2023-11-19T12:44:35;2.50;;;0.40;;
51332;SDS011;37417;48.118;11.734;2023-11-19T12:47:20;0.55;;;0.30;;
51332;SDS011;37417;48.118;11.734;2023-11-19T12:50:06;1.88;;;0.85;;
51332;SDS011;37417;48.118;11.734;2023-11-19T12:52:56;1.48;;;0.20;;
51332;SDS011;37417;48.118;11.734;2023-11-19T12:55:42;0.00;;;0.00;;
51332;SDS011;37417;48.118;11.734;2023-11-19T12:58:28;0.10;;;0.10;;
51332;SDS011;37417;48.118;11.734;2023-11-19T13:01:15;0.10;;;0.10;;
51332;SDS011;37417;48.118;11.734;2023-11-19T13:04:05;0.80;;;0.10;;
51332;SDS011;37417;48.118;11.734;2023-11-19T13:07:00;1.08;;;0.30;;
51332;SDS011;37417;48.118;11.734;2023-11-19T13:09:46;0.20;;;0.20;;
51332;SDS011;37417;48.118;11.734;2023-11-19T13:12:32;0.20;;;0.20;;
51332;SDS011;37417;48.118;11.734;2023-11-19T13:15:23;0.45;;;0.22;;
51332;SDS011;37417;48.118;11.734;2023-11-19T13:18:10;0.50;;;0.22;;
51332;SDS011;37417;48.118;11.734;2023-11-19T13:20:56;0.10;;;0.10;;
51332;SDS011;37417;48.118;11.734;2023-11-19T13:23:42;0.10;;;0.10;;
51332;SDS011;37417;48.118;11.734;2023-11-19T13:26:29;0.20;;;0.17;;
51332;SDS011;37417;48.118;11.734;2023-11-19T13:29:14;0.00;;;0.00;;
51332;SDS011;37417;48.118;11.734;2023-11-19T13:32:00;0.30;;;0.30;;
51332;SDS011;37417;48.118;11.734;2023-11-19T13:34:45;1.35;;;0.43;;
51332;SDS011;37417;48.118;11.734;2023-11-19T13:37:31;0.20;;;0.20;;
51332;SDS011;37417;48.118;11.734;2023-11-19T13:40:16;0.20;;;0.20;;
51332;SDS011;37417;48.118;11.734;2023-11-19T13:43:02;0.47;;;0.20;;
51332;SDS011;37417;48.118;11.734;2023-11-19T13:45:48;0.35;;;0.20;;
51332;SDS011;37417;48.118;11.734;2023-11-19T13:48:34;0.10;;;0.10;;
51332;SDS011;37417;48.118;11.734;2023-11-19T13:51:20;1.02;;;0.20;;
51332;SDS011;37417;48.118;11.734;2023-11-19T13:54:06;0.10;;;0.10;;
51332;SDS011;37417;48.118;11.734;2023-11-19T13:56:54;1.48;;;0.80;;
51332;SDS011;37417;48.118;11.734;2023-11-19T13:59:40;0.25;;;0.20;;
51332;SDS011;37417;48.118;11.734;2023-11-19T14:02:26;0.70;;;0.38;;
51332;SDS011;37417;48.118;11.734;2023-11-19T14:05:12;0.28;;;0.20;;
51332;SDS011;37417;48.118;11.734;2023-11-19T14:07:58;0.10;;;0.10;;
51332;SDS011;37417;48.118;11.734;2023-11-19T14:10:43;0.30;;;0.10;;
51332;SDS011;37417;48.118;11.734;2023-11-19T14:13:29;0.82;;;0.50;;
51332;SDS011;37417;48.118;11.734;2023-11-19T14:16:15;0.15;;;0.15;;
51332;SDS011;37417;48.118;11.734;2023-11-19T14:19:01;0.30;;;0.20;;
51332;SDS011;37417;48.118;11.734;2023-11-19T14:21:46;0.17;;;0.17;;
51332;SDS011;37417;48.118;11.734;2023-11-19T14:24:33;0.47;;;0.17;;
51332;SDS011;37417;48.118;11.734;2023-11-19T14:27:19;0.40;;;0.20;;
51332;SDS011;37417;48.118;11.734;2023-11-19T14:30:05;0.20;;;0.20;;
51332;SDS011;37417;48.118;11.734;2023-11-19T14:32:51;0.10;;;0.10;;
51332;SDS011;37417;48.118;11.734;2023-11-19T14:35:36;1.10;;;0.50;;
51332;SDS011;37417;48.118;11.734;2023-11-19T14:38:22;0.10;;;0.10;;
51332;SDS011;37417;48.118;11.734;2023-11-19T14:41:08;0.20;;;0.10;;
51332;SDS011;37417;48.118;11.734;2023-11-19T14:43:53;0.20;;;0.20;;
51332;SDS011;37417;48.118;11.734;2023-11-19T14:46:39;0.35;;;0.30;;
51332;SDS011;37417;48.118;11.734;2023-11-19T14:49:24;0.20;;;0.10;;
51332;SDS011;37417;48.118;11.734;2023-11-19T14:52:10;0.10;;;0.10;;
51332;SDS011;37417;48.118;11.734;2023-11-19T14:54:56;0.20;;;0.20;;
51332;SDS011;37417;48.118;11.734;2023-11-19T14:57:42;0.40;;;0.22;;
51332;SDS011;37417;48.118;11.734;2023-11-19T15:00:29;0.10;;;0.10;;
51332;SDS011;37417;48.118;11.734;2023-11-19T15:03:14;0.20;;;0.20;;
51332;SDS011;37417;48.118;11.734;2023-11-19T15:06:01;0.10;;;0.10;;
51332;SDS011;37417;48.118;11.734;2023-11-19T15:08:47;0.95;;;0.25;;
51332;SDS011;37417;48.118;11.734;2023-11-19T15:11:33;0.10;;;0.10;;
51332;SDS011;37417;48.118;11.734;2023-11-19T15:14:18;0.20;;;0.20;;
51332;SDS011;37417;48.118;11.734;2023-11-19T15:17:05;0.22;;;0.22;;
51332;SDS011;37417;48.118;11.734;2023-11-19T15:19:52;0.70;;;0.30;;
51332;SDS011;37417;48.118;11.734;2023-11-19T15:22:37;1.10;;;0.20;;
51332;SDS011;37417;48.118;11.734;2023-11-19T15:25:23;0.55;;;0.30;;
51332;SDS011;37417;48.118;11.734;2023-11-19T15:28:09;0.60;;;0.35;;
51332;SDS011;37417;48.118;11.734;2023-11-19T15:30:55;0.30;;;0.20;;
51332;SDS011;37417;48.118;11.734;2023-11-19T15:33:41;0.30;;;0.20;;
51332;SDS011;37417;48.118;11.734;2023-11-19T15:36:26;1.55;;;0.30;;
51332;SDS011;37417;48.118;11.734;2023-11-19T15:39:12;0.30;;;0.30;;
51332;SDS011;37417;48.118;11.734;2023-11-19T15:41:58;0.20;;;0.20;;
51332;SDS011;37417;48.118;11.734;2023-11-19T15:44:44;0.38;;;0.22;;
51332;SDS011;37417;48.118;11.734;2023-11-19T15:47:30;0.70;;;0.40;;
51332;SDS011;37417;48.118;11.734;2023-11-19T15:50:16;0.20;;;0.10;;
51332;SDS011;37417;48.118;11.734;2023-11-19T15:53:02;0.77;;;0.40;;
51332;SDS011;37417;48.118;11.734;2023-11-19T15:55:47;1.05;;;0.50;;
51332;SDS011;37417;48.118;11.734;2023-11-19T15:58:33;0.55;;;0.50;;
51332;SDS011;37417;48.118;11.734;2023-11-19T16:01:19;1.10;;;0.70;;
51332;SDS011;37417;48.118;11.734;2023-11-19T16:04:05;1.40;;;0.50;;
51332;SDS011;37417;48.118;11.734;2023-11-19T16:06:50;0.80;;;0.50;;
51332;SDS011;37417;48.118;11.734;2023-11-19T16:09:36;1.10;;;0.60;;
51332;SDS011;37417;48.118;11.734;2023-11-19T16:12:23;3.35;;;0.70;;
51332;SDS011;37417;48.118;11.734;2023-11-19T16:15:09;0.70;;;0.50;;
51332;SDS011;37417;48.118;11.734;2023-11-19T16:17:54;0.52;;;0.30;;
51332;SDS011;37417;48.118;11.734;2023-11-19T16:20:42;0.47;;;0.38;;
51332;SDS011;37417;48.118;11.734;2023-11-19T16:23:28;0.80;;;0.40;;
51332;SDS011;37417;48.118;11.734;2023-11-19T16:26:13;1.15;;;1.00;;
51332;SDS011;37417;48.118;11.734;2023-11-19T16:28:59;0.50;;;0.30;;
51332;SDS011;37417;48.118;11.734;2023-11-19T16:31:45;0.75;;;0.50;;
51332;SDS011;37417;48.118;11.734;2023-11-19T16:34:32;0.82;;;0.68;;
51332;SDS011;37417;48.118;11.734;2023-11-19T16:37:27;0.90;;;0.40;;